sensor_id;sensor_type;location;lat;lon;timestamp;pressure;altitude;pressure_sealevel;temperature;humidity
7157;BME280;3620;49.862;8.758;2022-08-19T00:01:35;98873.97;;;24.08;67.86
7157;BME280;3620;49.862;8.758;2022-08-19T00:04:04;98872.13;;;24.17;67.59
7157;BME280;3620;49.862;8.758;2022-08-19T00:06:33;98879.00;;;24.11;67.78
7157;BME280;3620;49.862;8.758;2022-08-19T00:09:00;98872.63;;;24.12;67.59
7157;BME280;3620;49.862;8.758;2022-08-19T00:11:28;98870.78;;;24.13;67.50
7157;BME280;3620;49.862;8.758;2022-08-19T00:13:56;98867.25;;;24.12;67.83
7157;BME280;3620;49.862;8.758;2022-08-19T00:16:23;98864.56;;;24.12;67.55
7157;BME280;3620;49.862;8.758;2022-08-19T00:18:50;98860.03;;;24.13;67.97
7157;BME280;3620;49.862;8.758;2022-08-19T00:21:16;98852.81;;;24.21;67.95
7157;BME280;3620;49.862;8.758;2022-08-19T00:23:43;98854.53;;;24.22;67.81
7157;BME280;3620;49.862;8.758;2022-08-19T00:26:10;98847.13;;;24.24;67.93
7157;BME280;3620;49.862;8.758;2022-08-19T00:28:39;98840.25;;;24.30;68.09
7157;BME280;3620;49.862;8.758;2022-08-19T00:31:07;98839.22;;;24.23;68.22
7157;BME280;3620;49.862;8.758;2022-08-19T00:33:34;98834.38;;;24.26;68.05
7157;BME280;3620;49.862;8.758;2022-08-19T00:36:04;98829.63;;;24.20;67.99
7157;BME280;3620;49.862;8.758;2022-08-19T00:38:31;98840.72;;;24.17;68.35
7157;BME280;3620;49.862;8.758;2022-08-19T00:40:58;98838.72;;;24.19;68.46
7157;BME280;3620;49.862;8.758;2022-08-19T00:43:26;98827.78;;;24.13;68.59
7157;BME280;3620;49.862;8.758;2022-08-19T00:45:55;98824.75;;;24.08;69.28
7157;BME280;3620;49.862;8.758;2022-08-19T00:48:21;98819.31;;;23.99;69.48
7157;BME280;3620;49.862;8.758;2022-08-19T00:50:50;98813.78;;;24.01;69.64
7157;BME280;3620;49.862;8.758;2022-08-19T00:53:20;98810.41;;;23.99;69.69
7157;BME280;3620;49.862;8.758;2022-08-19T00:55:50;98798.63;;;23.92;69.91
7157;BME280;3620;49.862;8.758;2022-08-19T00:58:19;98797.78;;;23.91;70.16
7157;BME280;3620;49.862;8.758;2022-08-19T01:00:47;98801.50;;;23.90;70.00
7157;BME280;3620;49.862;8.758;2022-08-19T01:03:18;98802.97;;;23.85;70.73
7157;BME280;3620;49.862;8.758;2022-08-19T01:05:47;98810.34;;;23.83;70.99
7157;BME280;3620;49.862;8.758;2022-08-19T01:08:15;98816.69;;;23.74;71.23
7157;BME280;3620;49.862;8.758;2022-08-19T01:10:45;98821.56;;;23.70;71.44
7157;BME280;3620;49.862;8.758;2022-08-19T01:13:14;98824.63;;;23.75;71.67
7157;BME280;3620;49.862;8.758;2022-08-19T01:15:43;98823.44;;;23.78;71.61
7157;BME280;3620;49.862;8.758;2022-08-19T01:18:13;98812.00;;;23.68;72.03
7157;BME280;3620;49.862;8.758;2022-08-19T01:20:43;98813.69;;;23.69;72.08
7157;BME280;3620;49.862;8.758;2022-08-19T01:23:12;98806.44;;;23.69;72.10
7157;BME280;3620;49.862;8.758;2022-08-19T01:25:44;98808.63;;;23.66;72.22
7157;BME280;3620;49.862;8.758;2022-08-19T01:28:16;98801.56;;;23.65;72.46
7157;BME280;3620;49.862;8.758;2022-08-19T01:30:44;98792.81;;;23.55;72.76
7157;BME280;3620;49.862;8.758;2022-08-19T01:33:12;98797.16;;;23.56;72.40
7157;BME280;3620;49.862;8.758;2022-08-19T01:35:40;98795.81;;;23.52;72.71
7157;BME280;3620;49.862;8.758;2022-08-19T01:38:10;98799.31;;;23.44;72.83
7157;BME280;3620;49.862;8.758;2022-08-19T01:40:46;98803.50;;;23.47;72.81
7157;BME280;3620;49.862;8.758;2022-08-19T01:43:13;98805.19;;;23.48;72.67
7157;BME280;3620;49.862;8.758;2022-08-19T01:45:40;98820.66;;;23.54;72.81
7157;BME280;3620;49.862;8.758;2022-08-19T01:48:07;98813.63;;;23.53;72.43
7157;BME280;3620;49.862;8.758;2022-08-19T01:50:35;98819.28;;;23.50;72.55
7157;BME280;3620;49.862;8.758;2022-08-19T01:53:06;98816.59;;;23.50;72.40
7157;BME280;3620;49.862;8.758;2022-08-19T01:55:34;98819.59;;;23.47;72.77
7157;BME280;3620;49.862;8.758;2022-08-19T01:58:04;98817.25;;;23.44;73.21
7157;BME280;3620;49.862;8.758;2022-08-19T02:00:32;98827.47;;;23.40;73.25
7157;BME280;3620;49.862;8.758;2022-08-19T02:02:59;98824.28;;;23.37;73.58
7157;BME280;3620;49.862;8.758;2022-08-19T02:05:26;98818.06;;;23.36;73.28
7157;BME280;3620;49.862;8.758;2022-08-19T02:07:54;98834.03;;;23.38;73.38
7157;BME280;3620;49.862;8.758;2022-08-19T02:10:22;98833.84;;;23.39;73.37
7157;BME280;3620;49.862;8.758;2022-08-19T02:12:49;98839.06;;;23.41;73.49
7157;BME280;3620;49.862;8.758;2022-08-19T02:15:19;98834.38;;;23.43;72.91
7157;BME280;3620;49.862;8.758;2022-08-19T02:17:46;98834.38;;;23.43;72.71
7157;BME280;3620;49.862;8.758;2022-08-19T02:20:14;98828.38;;;23.49;72.90
7157;BME280;3620;49.862;8.758;2022-08-19T02:22:41;98831.75;;;23.51;72.78
7157;BME280;3620;49.862;8.758;2022-08-19T02:25:09;98831.41;;;23.54;72.71
7157;BME280;3620;49.862;8.758;2022-08-19T02:27:36;98845.50;;;23.56;72.36
7157;BME280;3620;49.862;8.758;2022-08-19T02:30:04;98838.41;;;23.47;72.62
7157;BME280;3620;49.862;8.758;2022-08-19T02:32:32;98837.41;;;23.48;72.83
7157;BME280;3620;49.862;8.758;2022-08-19T02:34:59;98842.78;;;23.48;72.94
7157;BME280;3620;49.862;8.758;2022-08-19T02:37:26;98834.72;;;23.48;73.24
7157;BME280;3620;49.862;8.758;2022-08-19T02:40:11;98829.34;;;23.48;72.98
7157;BME280;3620;49.862;8.758;2022-08-19T02:42:38;98823.47;;;23.44;73.05
7157;BME280;3620;49.862;8.758;2022-08-19T02:45:06;98816.59;;;23.42;72.99
7157;BME280;3620;49.862;8.758;2022-08-19T02:47:34;98824.63;;;23.42;72.85
7157;BME280;3620;49.862;8.758;2022-08-19T02:50:02;98825.97;;;23.38;72.92
7157;BME280;3620;49.862;8.758;2022-08-19T02:52:29;98825.63;;;23.41;72.66
7157;BME280;3620;49.862;8.758;2022-08-19T02:54:56;98833.00;;;23.39;72.89
7157;BME280;3620;49.862;8.758;2022-08-19T02:57:22;98833.69;;;23.41;72.68
7157;BME280;3620;49.862;8.758;2022-08-19T02:59:49;98824.94;;;23.39;72.61
7157;BME280;3620;49.862;8.758;2022-08-19T03:02:16;98826.56;;;23.31;73.02
7157;BME280;3620;49.862;8.758;2022-08-19T03:04:44;98823.88;;;23.31;73.39
7157;BME280;3620;49.862;8.758;2022-08-19T03:07:13;98830.25;;;23.30;73.01
7157;BME280;3620;49.862;8.758;2022-08-19T03:09:39;98834.25;;;23.26;73.61
7157;BME280;3620;49.862;8.758;2022-08-19T03:12:07;98834.88;;;23.20;73.89
7157;BME280;3620;49.862;8.758;2022-08-19T03:14:34;98841.75;;;23.15;73.94
7157;BME280;3620;49.862;8.758;2022-08-19T03:17:02;98839.44;;;23.20;74.06
7157;BME280;3620;49.862;8.758;2022-08-19T03:19:30;98845.63;;;23.20;74.10
7157;BME280;3620;49.862;8.758;2022-08-19T03:21:58;98840.25;;;23.20;74.18
7157;BME280;3620;49.862;8.758;2022-08-19T03:24:25;98834.41;;;23.25;74.14
7157;BME280;3620;49.862;8.758;2022-08-19T03:26:53;98827.72;;;23.29;74.04
7157;BME280;3620;49.862;8.758;2022-08-19T03:29:23;98837.00;;;23.35;74.03
7157;BME280;3620;49.862;8.758;2022-08-19T03:31:50;98829.94;;;23.33;73.88
7157;BME280;3620;49.862;8.758;2022-08-19T03:34:19;98834.03;;;23.38;73.37
7157;BME280;3620;49.862;8.758;2022-08-19T03:36:47;98826.72;;;23.30;73.55
7157;BME280;3620;49.862;8.758;2022-08-19T03:39:16;98833.72;;;23.23;74.00
7157;BME280;3620;49.862;8.758;2022-08-19T03:41:44;98836.50;;;23.13;74.77
7157;BME280;3620;49.862;8.758;2022-08-19T03:44:12;98831.84;;;23.15;74.60
7157;BME280;3620;49.862;8.758;2022-08-19T03:46:39;98842.41;;;23.17;74.95
7157;BME280;3620;49.862;8.758;2022-08-19T03:49:05;98839.53;;;23.10;75.09
7157;BME280;3620;49.862;8.758;2022-08-19T03:51:36;98843.56;;;23.14;75.12
7157;BME280;3620;49.862;8.758;2022-08-19T03:54:05;98850.72;;;23.06;75.59
7157;BME280;3620;49.862;8.758;2022-08-19T03:56:35;98838.63;;;23.02;75.92
7157;BME280;3620;49.862;8.758;2022-08-19T03:59:03;98847.00;;;22.99;75.97
7157;BME280;3620;49.862;8.758;2022-08-19T04:01:30;98842.25;;;22.93;76.38
7157;BME280;3620;49.862;8.758;2022-08-19T04:03:58;98843.09;;;22.93;76.58
7157;BME280;3620;49.862;8.758;2022-08-19T04:06:27;98855.81;;;22.91;76.50
7157;BME280;3620;49.862;8.758;2022-08-19T04:08:56;98853.84;;;22.93;76.67
7157;BME280;3620;49.862;8.758;2022-08-19T04:11:26;98860.56;;;22.97;76.43
7157;BME280;3620;49.862;8.758;2022-08-19T04:13:55;98858.66;;;22.90;76.91
7157;BME280;3620;49.862;8.758;2022-08-19T04:16:26;98859.19;;;22.93;76.84
7157;BME280;3620;49.862;8.758;2022-08-19T04:18:54;98862.56;;;22.95;76.60
7157;BME280;3620;49.862;8.758;2022-08-19T04:21:22;98859.41;;;23.00;76.53
7157;BME280;3620;49.862;8.758;2022-08-19T04:23:50;98851.19;;;23.01;76.48
7157;BME280;3620;49.862;8.758;2022-08-19T04:26:19;98857.41;;;23.02;76.21
7157;BME280;3620;49.862;8.758;2022-08-19T04:28:46;98859.47;;;23.08;76.17
7157;BME280;3620;49.862;8.758;2022-08-19T04:31:18;98862.19;;;23.16;75.65
7157;BME280;3620;49.862;8.758;2022-08-19T04:33:45;98858.69;;;23.15;75.90
7157;BME280;3620;49.862;8.758;2022-08-19T04:36:16;98864.88;;;23.16;75.80
7157;BME280;3620;49.862;8.758;2022-08-19T04:38:46;98858.69;;;23.15;75.71
7157;BME280;3620;49.862;8.758;2022-08-19T04:41:13;98854.00;;;23.17;75.77
7157;BME280;3620;49.862;8.758;2022-08-19T04:43:57;98849.41;;;23.10;76.06
7157;BME280;3620;49.862;8.758;2022-08-19T04:46:25;98855.94;;;23.07;75.80
7157;BME280;3620;49.862;8.758;2022-08-19T04:48:54;98854.25;;;23.06;75.69
7157;BME280;3620;49.862;8.758;2022-08-19T04:51:22;98853.63;;;23.12;75.72
7157;BME280;3620;49.862;8.758;2022-08-19T04:53:49;98862.66;;;23.11;75.82
7157;BME280;3620;49.862;8.758;2022-08-19T04:56:18;98866.75;;;23.15;75.93
7157;BME280;3620;49.862;8.758;2022-08-19T04:58:46;98859.00;;;23.12;75.75
7157;BME280;3620;49.862;8.758;2022-08-19T05:01:14;98860.06;;;23.19;75.69
7157;BME280;3620;49.862;8.758;2022-08-19T05:03:42;98867.00;;;23.30;75.17
7157;BME280;3620;49.862;8.758;2022-08-19T05:06:14;98859.34;;;23.35;75.06
7157;BME280;3620;49.862;8.758;2022-08-19T05:08:42;98862.84;;;23.36;75.43
7157;BME280;3620;49.862;8.758;2022-08-19T05:11:12;98873.75;;;23.34;75.06
7157;BME280;3620;49.862;8.758;2022-08-19T05:13:39;98867.59;;;23.42;75.24
7157;BME280;3620;49.862;8.758;2022-08-19T05:16:06;98861.38;;;23.41;74.65
7157;BME280;3620;49.862;8.758;2022-08-19T05:18:33;98866.75;;;23.41;75.01
7157;BME280;3620;49.862;8.758;2022-08-19T05:21:19;98860.16;;;23.36;75.24
7157;BME280;3620;49.862;8.758;2022-08-19T05:24:06;98865.53;;;23.36;75.26
7157;BME280;3620;49.862;8.758;2022-08-19T05:26:34;98874.44;;;23.36;75.54
7157;BME280;3620;49.862;8.758;2022-08-19T05:29:01;98866.59;;;23.43;75.40
7157;BME280;3620;49.862;8.758;2022-08-19T05:31:28;98875.97;;;23.39;75.32
7157;BME280;3620;49.862;8.758;2022-08-19T05:33:55;98884.69;;;23.41;75.40
7157;BME280;3620;49.862;8.758;2022-08-19T05:36:25;98881.06;;;23.50;75.15
7157;BME280;3620;49.862;8.758;2022-08-19T05:38:52;98871.00;;;23.52;75.36
7157;BME280;3620;49.862;8.758;2022-08-19T05:41:21;98880.06;;;23.51;75.42
7157;BME280;3620;49.862;8.758;2022-08-19T05:43:48;98875.88;;;23.48;75.14
7157;BME280;3620;49.862;8.758;2022-08-19T05:46:17;98877.00;;;23.46;75.47
7157;BME280;3620;49.862;8.758;2022-08-19T05:48:45;98886.69;;;23.64;74.58
7157;BME280;3620;49.862;8.758;2022-08-19T05:51:12;98888.34;;;23.57;74.88
7157;BME280;3620;49.862;8.758;2022-08-19T05:53:40;98889.88;;;23.60;74.59
7157;BME280;3620;49.862;8.758;2022-08-19T05:56:08;98897.25;;;23.58;74.40
7157;BME280;3620;49.862;8.758;2022-08-19T05:58:36;98890.16;;;23.57;75.36
7157;BME280;3620;49.862;8.758;2022-08-19T06:01:04;98897.84;;;23.52;75.20
7157;BME280;3620;49.862;8.758;2022-08-19T06:03:36;98903.91;;;23.54;75.45
7157;BME280;3620;49.862;8.758;2022-08-19T06:06:05;98903.56;;;23.49;75.51
7157;BME280;3620;49.862;8.758;2022-08-19T06:08:33;98911.47;;;23.58;75.28
7157;BME280;3620;49.862;8.758;2022-08-19T06:11:14;98913.00;;;23.61;75.53
7157;BME280;3620;49.862;8.758;2022-08-19T06:13:41;98921.44;;;23.66;75.02
7157;BME280;3620;49.862;8.758;2022-08-19T06:16:08;98926.81;;;23.66;75.16
7157;BME280;3620;49.862;8.758;2022-08-19T06:18:35;98928.19;;;23.70;75.07
7157;BME280;3620;49.862;8.758;2022-08-19T06:21:02;98932.69;;;23.69;75.49
7157;BME280;3620;49.862;8.758;2022-08-19T06:23:30;98932.09;;;23.75;74.85
7157;BME280;3620;49.862;8.758;2022-08-19T06:25:56;98936.59;;;23.75;74.33
7157;BME280;3620;49.862;8.758;2022-08-19T06:28:24;98938.31;;;23.50;75.67
7157;BME280;3620;49.862;8.758;2022-08-19T06:30:51;98941.56;;;23.62;75.92
7157;BME280;3620;49.862;8.758;2022-08-19T06:33:18;98948.00;;;23.69;75.58
7157;BME280;3620;49.862;8.758;2022-08-19T06:35:44;98944.28;;;23.70;75.24
7157;BME280;3620;49.862;8.758;2022-08-19T06:38:11;98950.81;;;23.67;75.96
7157;BME280;3620;49.862;8.758;2022-08-19T06:40:38;98939.97;;;23.77;75.64
7157;BME280;3620;49.862;8.758;2022-08-19T06:43:05;98944.19;;;23.79;75.38
7157;BME280;3620;49.862;8.758;2022-08-19T06:45:33;98947.66;;;23.72;75.07
7157;BME280;3620;49.862;8.758;2022-08-19T06:47:59;98962.53;;;23.84;74.61
7157;BME280;3620;49.862;8.758;2022-08-19T06:50:26;98963.88;;;23.88;74.94
7157;BME280;3620;49.862;8.758;2022-08-19T06:52:53;98964.09;;;23.94;74.99
7157;BME280;3620;49.862;8.758;2022-08-19T06:55:19;98967.97;;;24.00;74.82
7157;BME280;3620;49.862;8.758;2022-08-19T06:57:46;98968.41;;;24.13;74.23
7157;BME280;3620;49.862;8.758;2022-08-19T07:00:13;98973.88;;;24.03;73.97
7157;BME280;3620;49.862;8.758;2022-08-19T07:02:42;98966.72;;;24.12;73.51
7157;BME280;3620;49.862;8.758;2022-08-19T07:05:09;98971.78;;;24.15;73.95
7157;BME280;3620;49.862;8.758;2022-08-19T07:07:36;98984.53;;;24.13;74.07
7157;BME280;3620;49.862;8.758;2022-08-19T07:10:04;98980.72;;;24.24;73.05
7157;BME280;3620;49.862;8.758;2022-08-19T07:12:32;98979.88;;;24.23;72.93
7157;BME280;3620;49.862;8.758;2022-08-19T07:14:59;98978.69;;;24.18;73.46
7157;BME280;3620;49.862;8.758;2022-08-19T07:17:27;98978.81;;;24.16;73.53
7157;BME280;3620;49.862;8.758;2022-08-19T07:19:55;98969.13;;;24.23;73.71
7157;BME280;3620;49.862;8.758;2022-08-19T07:22:22;98971.16;;;24.29;73.00
7157;BME280;3620;49.862;8.758;2022-08-19T07:24:49;98968.47;;;24.29;72.82
7157;BME280;3620;49.862;8.758;2022-08-19T07:27:15;98974.88;;;24.36;73.02
7157;BME280;3620;49.862;8.758;2022-08-19T07:29:42;98970.22;;;24.46;72.63
7157;BME280;3620;49.862;8.758;2022-08-19T07:32:09;98979.66;;;24.58;71.92
7157;BME280;3620;49.862;8.758;2022-08-19T07:34:36;98978.78;;;24.58;71.61
7157;BME280;3620;49.862;8.758;2022-08-19T07:37:05;98973.59;;;24.48;72.14
7157;BME280;3620;49.862;8.758;2022-08-19T07:39:34;98977.31;;;24.55;72.46
7157;BME280;3620;49.862;8.758;2022-08-19T07:42:05;98973.94;;;24.61;72.28
7157;BME280;3620;49.862;8.758;2022-08-19T07:44:33;98970.75;;;24.66;71.95
7157;BME280;3620;49.862;8.758;2022-08-19T07:47:00;98981.66;;;24.64;71.73
7157;BME280;3620;49.862;8.758;2022-08-19T07:49:27;98986.06;;;24.65;72.45
7157;BME280;3620;49.862;8.758;2022-08-19T07:51:57;98981.53;;;24.74;71.42
7157;BME280;3620;49.862;8.758;2022-08-19T07:54:26;98978.00;;;24.73;72.23
7157;BME280;3620;49.862;8.758;2022-08-19T07:56:54;98979.59;;;24.84;71.80
7157;BME280;3620;49.862;8.758;2022-08-19T07:59:21;98979.75;;;24.91;70.75
7157;BME280;3620;49.862;8.758;2022-08-19T08:01:48;98977.56;;;25.02;70.48
7157;BME280;3620;49.862;8.758;2022-08-19T08:04:15;98982.78;;;25.12;70.37
7157;BME280;3620;49.862;8.758;2022-08-19T08:06:59;98985.50;;;25.12;69.57
7157;BME280;3620;49.862;8.758;2022-08-19T08:09:45;98984.31;;;25.14;70.09
7157;BME280;3620;49.862;8.758;2022-08-19T08:12:14;98982.81;;;25.20;68.31
7157;BME280;3620;49.862;8.758;2022-08-19T08:14:44;98978.59;;;25.25;68.37
7157;BME280;3620;49.862;8.758;2022-08-19T08:17:12;98979.63;;;25.32;68.71
7157;BME280;3620;49.862;8.758;2022-08-19T08:19:40;98976.75;;;25.34;69.44
7157;BME280;3620;49.862;8.758;2022-08-19T08:22:08;98985.16;;;25.39;68.34
7157;BME280;3620;49.862;8.758;2022-08-19T08:25:01;98977.09;;;25.55;67.81
7157;BME280;3620;49.862;8.758;2022-08-19T08:27:28;98974.56;;;25.62;66.26
7157;BME280;3620;49.862;8.758;2022-08-19T08:29:56;98968.31;;;25.69;66.66
7157;BME280;3620;49.862;8.758;2022-08-19T08:32:23;98974.69;;;25.84;65.47
7157;BME280;3620;49.862;8.758;2022-08-19T08:34:50;98972.00;;;25.84;64.74
7157;BME280;3620;49.862;8.758;2022-08-19T08:37:18;98972.66;;;25.86;61.60
7157;BME280;3620;49.862;8.758;2022-08-19T08:39:47;98977.66;;;26.05;62.02
7157;BME280;3620;49.862;8.758;2022-08-19T08:42:19;98980.00;;;26.16;59.99
7157;BME280;3620;49.862;8.758;2022-08-19T08:44:52;98978.47;;;26.22;58.85
7157;BME280;3620;49.862;8.758;2022-08-19T08:47:22;98973.22;;;26.29;58.96
7157;BME280;3620;49.862;8.758;2022-08-19T08:49:52;98972.84;;;26.32;58.41
7157;BME280;3620;49.862;8.758;2022-08-19T08:52:23;98973.91;;;26.23;58.55
7157;BME280;3620;49.862;8.758;2022-08-19T08:54:53;98976.81;;;26.05;58.97
7157;BME280;3620;49.862;8.758;2022-08-19T08:57:27;98979.34;;;25.98;58.71
7157;BME280;3620;49.862;8.758;2022-08-19T08:59:57;98979.56;;;25.89;58.04
7157;BME280;3620;49.862;8.758;2022-08-19T09:02:25;98978.09;;;25.70;58.12
7157;BME280;3620;49.862;8.758;2022-08-19T09:04:54;98981.78;;;25.69;57.78
7157;BME280;3620;49.862;8.758;2022-08-19T09:07:31;98986.84;;;25.56;58.24
7157;BME280;3620;49.862;8.758;2022-08-19T09:10:10;98976.06;;;25.72;58.04
7157;BME280;3620;49.862;8.758;2022-08-19T09:12:48;98982.41;;;25.87;57.80
7157;BME280;3620;49.862;8.758;2022-08-19T09:15:22;98988.19;;;25.84;58.85
7157;BME280;3620;49.862;8.758;2022-08-19T09:17:52;98980.72;;;25.94;57.90
7157;BME280;3620;49.862;8.758;2022-08-19T09:20:21;98981.19;;;25.98;58.26
7157;BME280;3620;49.862;8.758;2022-08-19T09:22:48;98986.41;;;26.07;57.93
7157;BME280;3620;49.862;8.758;2022-08-19T09:25:18;98988.09;;;26.08;58.16
7157;BME280;3620;49.862;8.758;2022-08-19T09:27:49;98991.50;;;26.10;57.61
7157;BME280;3620;49.862;8.758;2022-08-19T09:30:19;98990.13;;;26.06;56.95
7157;BME280;3620;49.862;8.758;2022-08-19T09:32:47;98975.59;;;26.24;56.57
7157;BME280;3620;49.862;8.758;2022-08-19T09:35:15;98982.53;;;26.18;56.83
7157;BME280;3620;49.862;8.758;2022-08-19T09:37:41;98985.41;;;26.16;57.19
7157;BME280;3620;49.862;8.758;2022-08-19T09:40:11;98976.59;;;26.31;57.21
7157;BME280;3620;49.862;8.758;2022-08-19T09:42:38;98966.63;;;26.31;56.38
7157;BME280;3620;49.862;8.758;2022-08-19T09:45:07;98972.50;;;26.35;57.41
7157;BME280;3620;49.862;8.758;2022-08-19T09:47:33;98981.53;;;26.50;56.36
7157;BME280;3620;49.862;8.758;2022-08-19T09:50:03;98970.28;;;26.69;55.30
7157;BME280;3620;49.862;8.758;2022-08-19T09:52:31;98962.50;;;26.82;55.96
7157;BME280;3620;49.862;8.758;2022-08-19T09:54:57;98965.81;;;26.92;54.64
7157;BME280;3620;49.862;8.758;2022-08-19T09:57:24;98969.81;;;27.19;55.42
7157;BME280;3620;49.862;8.758;2022-08-19T09:59:51;98976.84;;;27.28;53.57
7157;BME280;3620;49.862;8.758;2022-08-19T10:02:20;98976.38;;;27.24;52.04
7157;BME280;3620;49.862;8.758;2022-08-19T10:04:46;98971.00;;;27.16;53.04
7157;BME280;3620;49.862;8.758;2022-08-19T10:07:30;98973.59;;;27.32;53.00
7157;BME280;3620;49.862;8.758;2022-08-19T10:09:57;98978.03;;;27.48;52.19
7157;BME280;3620;49.862;8.758;2022-08-19T10:12:24;98969.47;;;27.44;51.87
7157;BME280;3620;49.862;8.758;2022-08-19T10:14:51;98972.88;;;27.38;51.97
7157;BME280;3620;49.862;8.758;2022-08-19T10:17:20;98977.78;;;27.57;52.17
7157;BME280;3620;49.862;8.758;2022-08-19T10:19:47;98972.56;;;27.56;50.02
7157;BME280;3620;49.862;8.758;2022-08-19T10:22:14;98974.25;;;27.72;50.79
7157;BME280;3620;49.862;8.758;2022-08-19T10:24:41;98966.34;;;27.85;50.06
7157;BME280;3620;49.862;8.758;2022-08-19T10:27:08;98973.72;;;27.91;50.06
7157;BME280;3620;49.862;8.758;2022-08-19T10:29:35;98960.28;;;27.83;51.43
7157;BME280;3620;49.862;8.758;2022-08-19T10:32:03;98961.50;;;27.66;52.05
7157;BME280;3620;49.862;8.758;2022-08-19T10:34:32;98956.81;;;27.59;52.12
7157;BME280;3620;49.862;8.758;2022-08-19T10:37:00;98964.72;;;27.46;52.30
7157;BME280;3620;49.862;8.758;2022-08-19T10:39:27;98960.88;;;27.18;52.71
7157;BME280;3620;49.862;8.758;2022-08-19T10:41:55;98968.94;;;27.26;53.15
7157;BME280;3620;49.862;8.758;2022-08-19T10:44:22;98967.84;;;27.35;53.25
7157;BME280;3620;49.862;8.758;2022-08-19T10:46:49;98956.31;;;27.41;51.98
7157;BME280;3620;49.862;8.758;2022-08-19T10:49:18;98951.47;;;27.51;51.18
7157;BME280;3620;49.862;8.758;2022-08-19T10:51:47;98944.81;;;27.77;50.63
7157;BME280;3620;49.862;8.758;2022-08-19T10:54:32;98945.22;;;28.03;49.48
7157;BME280;3620;49.862;8.758;2022-08-19T10:57:16;98944.81;;;27.91;50.12
7157;BME280;3620;49.862;8.758;2022-08-19T10:59:43;98934.09;;;27.69;51.32
7157;BME280;3620;49.862;8.758;2022-08-19T11:02:11;98931.34;;;27.54;51.80
7157;BME280;3620;49.862;8.758;2022-08-19T11:04:39;98935.72;;;27.40;51.67
7157;BME280;3620;49.862;8.758;2022-08-19T11:07:08;98930.59;;;27.45;51.93
7157;BME280;3620;49.862;8.758;2022-08-19T11:09:38;98930.81;;;27.58;51.75
7157;BME280;3620;49.862;8.758;2022-08-19T11:12:06;98921.31;;;27.77;50.28
7157;BME280;3620;49.862;8.758;2022-08-19T11:14:34;98910.13;;;27.95;49.13
7157;BME280;3620;49.862;8.758;2022-08-19T11:17:01;98894.94;;;28.08;49.22
7157;BME280;3620;49.862;8.758;2022-08-19T11:19:28;98900.81;;;28.12;49.30
7157;BME280;3620;49.862;8.758;2022-08-19T11:21:56;98900.22;;;28.31;49.28
7157;BME280;3620;49.862;8.758;2022-08-19T11:24:29;98904.72;;;28.24;48.61
7157;BME280;3620;49.862;8.758;2022-08-19T11:27:04;98896.16;;;28.06;46.93
7157;BME280;3620;49.862;8.758;2022-08-19T11:29:31;98897.91;;;28.13;48.16
7157;BME280;3620;49.862;8.758;2022-08-19T11:31:59;98910.97;;;27.95;48.02
7157;BME280;3620;49.862;8.758;2022-08-19T11:34:28;98902.41;;;28.06;48.95
7157;BME280;3620;49.862;8.758;2022-08-19T11:36:56;98904.28;;;28.06;48.14
7157;BME280;3620;49.862;8.758;2022-08-19T11:39:27;98898.81;;;28.20;47.79
7157;BME280;3620;49.862;8.758;2022-08-19T11:41:57;98897.41;;;28.39;48.18
7157;BME280;3620;49.862;8.758;2022-08-19T11:44:25;98908.28;;;28.46;46.24
7157;BME280;3620;49.862;8.758;2022-08-19T11:46:52;98904.47;;;28.76;46.39
7157;BME280;3620;49.862;8.758;2022-08-19T11:49:19;98900.88;;;28.90;46.01
7157;BME280;3620;49.862;8.758;2022-08-19T11:51:47;98904.69;;;28.95;45.63
7157;BME280;3620;49.862;8.758;2022-08-19T11:54:16;98897.09;;;28.84;46.08
7157;BME280;3620;49.862;8.758;2022-08-19T11:56:44;98896.94;;;28.71;46.08
7157;BME280;3620;49.862;8.758;2022-08-19T11:59:14;98895.47;;;28.90;45.54
7157;BME280;3620;49.862;8.758;2022-08-19T12:01:41;98900.56;;;28.99;45.92
7157;BME280;3620;49.862;8.758;2022-08-19T12:04:08;98884.84;;;29.16;45.72
7157;BME280;3620;49.862;8.758;2022-08-19T12:06:38;98893.06;;;29.23;44.93
7157;BME280;3620;49.862;8.758;2022-08-19T12:09:07;98893.94;;;29.30;44.73
7157;BME280;3620;49.862;8.758;2022-08-19T12:11:35;98895.66;;;29.31;44.76
7157;BME280;3620;49.862;8.758;2022-08-19T12:14:03;98893.97;;;29.09;44.85
7157;BME280;3620;49.862;8.758;2022-08-19T12:16:32;98886.06;;;29.14;44.86
7157;BME280;3620;49.862;8.758;2022-08-19T12:19:00;98882.84;;;29.25;45.14
7157;BME280;3620;49.862;8.758;2022-08-19T12:21:30;98878.63;;;29.43;44.63
7157;BME280;3620;49.862;8.758;2022-08-19T12:23:58;98884.72;;;29.52;43.42
7157;BME280;3620;49.862;8.758;2022-08-19T12:26:27;98884.72;;;29.52;42.87
7157;BME280;3620;49.862;8.758;2022-08-19T12:28:54;98899.06;;;29.18;43.37
7157;BME280;3620;49.862;8.758;2022-08-19T12:31:21;98891.91;;;29.11;44.32
7157;BME280;3620;49.862;8.758;2022-08-19T12:33:49;98888.94;;;29.06;44.32
7157;BME280;3620;49.862;8.758;2022-08-19T12:36:17;98883.66;;;28.97;44.86
7157;BME280;3620;49.862;8.758;2022-08-19T12:38:44;98896.88;;;28.86;44.59
7157;BME280;3620;49.862;8.758;2022-08-19T12:41:14;98893.28;;;28.79;44.91
7157;BME280;3620;49.862;8.758;2022-08-19T12:43:43;98890.47;;;28.93;44.53
7157;BME280;3620;49.862;8.758;2022-08-19T12:46:10;98882.81;;;29.18;44.32
7157;BME280;3620;49.862;8.758;2022-08-19T12:48:37;98888.28;;;29.25;43.25
7157;BME280;3620;49.862;8.758;2022-08-19T12:51:10;98888.09;;;29.54;43.21
7157;BME280;3620;49.862;8.758;2022-08-19T12:53:37;98880.59;;;29.56;42.49
7157;BME280;3620;49.862;8.758;2022-08-19T12:56:05;98877.31;;;29.67;41.61
7157;BME280;3620;49.862;8.758;2022-08-19T12:58:32;98885.00;;;29.91;42.25
7157;BME280;3620;49.862;8.758;2022-08-19T13:00:59;98882.56;;;30.09;40.63
7157;BME280;3620;49.862;8.758;2022-08-19T13:03:26;98885.19;;;30.30;40.53
7157;BME280;3620;49.862;8.758;2022-08-19T13:05:55;98881.75;;;30.09;39.80
7157;BME280;3620;49.862;8.758;2022-08-19T13:08:23;98893.56;;;29.88;39.21
7157;BME280;3620;49.862;8.758;2022-08-19T13:10:50;98899.19;;;29.59;41.78
7157;BME280;3620;49.862;8.758;2022-08-19T13:13:17;98898.63;;;29.70;42.33
7157;BME280;3620;49.862;8.758;2022-08-19T13:15:44;98902.50;;;29.82;41.57
7157;BME280;3620;49.862;8.758;2022-08-19T13:18:11;98893.38;;;29.96;41.42
7157;BME280;3620;49.862;8.758;2022-08-19T13:20:39;98898.50;;;30.19;41.00
7157;BME280;3620;49.862;8.758;2022-08-19T13:23:07;98898.53;;;30.25;40.67
7157;BME280;3620;49.862;8.758;2022-08-19T13:25:35;98899.06;;;30.49;40.07
7157;BME280;3620;49.862;8.758;2022-08-19T13:28:02;98901.19;;;30.66;40.81
7157;BME280;3620;49.862;8.758;2022-08-19T13:30:32;98907.03;;;30.70;39.03